Lowest pressure

Not for real navigation. The accuracy of this data is not assured See disclaimer for more information



ICAO NAME COUNTRY WIND Kt GUST Kt VIS m TEMP/DEW C BARO METAR
SAWG Rio Gallegos Aerodrome Argentina 6 0 9999 7/4 28.82 SAWG 150800Z 05006KT 9999 SCT030 BKN050 07/04 Q0976
PAUT 4 0 16000 8/8 28.84 PAUT 150815Z AUTO 07004KT 10SM DZ BKN011 BKN017 OVC037 08/08 A2884 RMK AO2 T00820078
SCCI Punta Arenas Chile 15 0 9999 5/4 28.85 SCCI 150800Z 04015KT 9999 -RA SCT006 OVC013 05/04 Q0977 NOSIG
PADU Unalaska, Unalaska Airport AK United States 3 0 16000 8/7 28.85 PADU 150816Z AUTO 35003KT 10SM BKN007 OVC018 08/07 A2885 RMK AO2
PAKF 14 22 9600 10/8 28.90 PAKF 150756Z AUTO 12014G22KT 6SM -RA BR OVC010 10/08 A2890 RMK AO2 RAB04 SLP788 T01000083 PNO $

Show more